createdAt,value
2017-05-14T00:00:03.633Z,0
2017-05-14T00:00:44.207Z,0
2017-05-14T00:01:24.776Z,0
2017-05-14T00:02:05.359Z,0
2017-05-14T00:02:45.929Z,0
2017-05-14T00:03:26.520Z,0
2017-05-14T00:04:07.103Z,0
2017-05-14T00:04:47.677Z,0
2017-05-14T00:05:28.243Z,0
2017-05-14T00:06:08.835Z,0
2017-05-14T00:06:49.409Z,0
2017-05-14T00:07:29.979Z,0
2017-05-14T00:08:10.548Z,0
2017-05-14T00:08:51.124Z,0
2017-05-14T00:09:31.730Z,0
2017-05-14T00:10:12.268Z,0
2017-05-14T00:10:52.840Z,0
2017-05-14T00:11:33.426Z,0
2017-05-14T00:12:13.998Z,0
2017-05-14T00:12:54.573Z,0
2017-05-14T00:13:35.151Z,0
2017-05-14T00:14:15.735Z,0
2017-05-14T00:14:56.300Z,0
2017-05-14T00:15:36.872Z,0
2017-05-14T00:16:17.464Z,0
2017-05-14T00:16:58.042Z,0
2017-05-14T00:17:38.609Z,0
2017-05-14T00:18:19.178Z,0
2017-05-14T00:18:59.773Z,0
2017-05-14T00:19:40.345Z,0
2017-05-14T00:20:20.913Z,0
2017-05-14T00:21:01.491Z,0
2017-05-14T00:21:42.065Z,0
2017-05-14T00:22:22.661Z,0
2017-05-14T00:23:03.243Z,0
2017-05-14T00:23:43.820Z,0
2017-05-14T00:24:24.415Z,0
2017-05-14T00:25:04.997Z,0
2017-05-14T00:25:45.581Z,0
2017-05-14T00:26:26.160Z,0
2017-05-14T00:27:06.732Z,0
2017-05-14T00:27:47.306Z,0
2017-05-14T00:28:27.887Z,0
2017-05-14T00:29:08.479Z,0
2017-05-14T00:29:49.059Z,0
2017-05-14T00:30:29.622Z,0
2017-05-14T00:31:10.201Z,0
2017-05-14T00:31:50.779Z,0
2017-05-14T00:32:31.348Z,0
2017-05-14T00:33:11.949Z,0
2017-05-14T00:33:52.518Z,0
2017-05-14T00:34:33.099Z,0
2017-05-14T00:35:13.664Z,0
2017-05-14T00:35:54.247Z,0
2017-05-14T00:36:34.826Z,0
2017-05-14T00:37:15.399Z,0
2017-05-14T00:37:55.972Z,0
2017-05-14T00:38:36.560Z,0
2017-05-14T00:39:17.151Z,0
2017-05-14T00:39:57.727Z,0
2017-05-14T00:40:38.319Z,0
2017-05-14T00:41:18.909Z,0
2017-05-14T00:41:59.491Z,0
2017-05-14T00:42:40.079Z,0
2017-05-14T00:43:20.654Z,0
2017-05-14T00:44:01.231Z,0
2017-05-14T00:44:41.799Z,0
2017-05-14T00:45:22.369Z,0
2017-05-14T00:46:02.944Z,0
2017-05-14T00:46:43.527Z,0
2017-05-14T00:47:24.100Z,0
2017-05-14T00:48:04.676Z,0
2017-05-14T00:48:45.242Z,0
2017-05-14T00:49:25.815Z,0
2017-05-14T00:50:06.388Z,0
2017-05-14T00:50:46.997Z,0
2017-05-14T00:51:27.590Z,0
2017-05-14T00:52:08.156Z,0
2017-05-14T00:52:48.737Z,0
2017-05-14T00:53:29.307Z,0
2017-05-14T00:54:09.896Z,0
2017-05-14T00:54:50.465Z,0
2017-05-14T00:55:31.048Z,0
2017-05-14T00:56:11.624Z,0
2017-05-14T00:56:52.198Z,0
2017-05-14T00:57:32.771Z,0
2017-05-14T00:58:13.348Z,0
2017-05-14T00:58:53.916Z,0
2017-05-14T00:59:34.484Z,0
2017-05-14T01:00:15.058Z,0
2017-05-14T01:00:55.665Z,0
2017-05-14T01:01:36.254Z,0
2017-05-14T01:02:16.833Z,0
2017-05-14T01:02:57.418Z,0
2017-05-14T01:03:38.014Z,0
2017-05-14T01:04:18.589Z,0
2017-05-14T01:04:59.173Z,0
2017-05-14T01:05:39.744Z,0
2017-05-14T01:06:20.309Z,0
2017-05-14T01:07:00.886Z,0
2017-05-14T01:07:41.464Z,0
2017-05-14T01:08:22.034Z,0
2017-05-14T01:09:02.621Z,0
2017-05-14T01:09:43.189Z,0
2017-05-14T01:10:23.769Z,0
2017-05-14T01:11:04.340Z,0
2017-05-14T01:11:44.908Z,0
2017-05-14T01:12:25.492Z,0
2017-05-14T01:13:06.071Z,0
2017-05-14T01:13:46.653Z,0
2017-05-14T01:14:27.240Z,0
2017-05-14T01:15:07.814Z,0
2017-05-14T01:15:48.390Z,0
2017-05-14T01:16:29.003Z,0
2017-05-14T01:17:09.570Z,0
2017-05-14T01:17:50.160Z,0
2017-05-14T01:18:30.746Z,0
2017-05-14T01:19:11.321Z,0
2017-05-14T01:19:51.919Z,0
2017-05-14T01:20:32.499Z,0
2017-05-14T01:21:13.070Z,0
2017-05-14T01:21:53.646Z,0
2017-05-14T01:22:34.213Z,0
2017-05-14T01:23:14.795Z,0
2017-05-14T01:23:55.368Z,0
2017-05-14T01:24:35.980Z,0
2017-05-14T01:25:16.511Z,0
2017-05-14T01:25:57.076Z,0
2017-05-14T01:26:37.664Z,0
2017-05-14T01:27:18.233Z,0
2017-05-14T01:27:58.810Z,0
2017-05-14T01:28:39.380Z,0
2017-05-14T01:29:19.951Z,0
2017-05-14T01:30:00.524Z,0
2017-05-14T01:30:41.116Z,0
2017-05-14T01:31:21.685Z,0
2017-05-14T01:32:02.268Z,0
2017-05-14T01:32:42.844Z,0
2017-05-14T01:33:23.438Z,0
2017-05-14T01:34:04.031Z,0
2017-05-14T01:34:44.604Z,0
2017-05-14T01:35:25.194Z,0
2017-05-14T01:36:05.774Z,0
2017-05-14T01:36:46.367Z,0
2017-05-14T01:37:26.959Z,0
2017-05-14T01:38:07.538Z,0
2017-05-14T01:38:48.142Z,0
2017-05-14T01:39:28.706Z,0
2017-05-14T01:40:09.282Z,0
2017-05-14T01:40:49.896Z,0
2017-05-14T01:41:30.464Z,0
2017-05-14T01:42:11.039Z,0
2017-05-14T01:42:51.609Z,0
2017-05-14T01:43:32.216Z,0
2017-05-14T01:44:12.834Z,0
2017-05-14T01:44:53.419Z,0
2017-05-14T01:45:34.020Z,0
2017-05-14T01:46:14.612Z,0
2017-05-14T01:46:55.216Z,0
2017-05-14T01:47:35.785Z,0
2017-05-14T01:48:16.390Z,0
2017-05-14T01:48:56.964Z,0
2017-05-14T01:49:37.580Z,0
2017-05-14T01:50:18.163Z,0
2017-05-14T01:50:58.756Z,0
2017-05-14T01:51:39.328Z,0
2017-05-14T01:52:19.910Z,0
2017-05-14T01:53:00.478Z,0
2017-05-14T01:53:41.050Z,0
2017-05-14T01:54:21.648Z,0
2017-05-14T01:55:02.231Z,0
2017-05-14T01:55:42.846Z,0
2017-05-14T01:56:23.430Z,0
2017-05-14T01:57:03.997Z,0
2017-05-14T01:57:44.594Z,0
2017-05-14T01:58:25.158Z,0
2017-05-14T01:59:05.732Z,0
2017-05-14T01:59:46.319Z,0
2017-05-14T02:00:26.898Z,0
2017-05-14T02:01:07.482Z,0
2017-05-14T02:01:48.054Z,0
2017-05-14T02:02:28.629Z,0
2017-05-14T02:03:09.209Z,0
2017-05-14T02:03:49.787Z,0
2017-05-14T02:04:30.358Z,0
2017-05-14T02:05:10.935Z,0
2017-05-14T02:05:51.516Z,0
2017-05-14T02:06:32.100Z,0
2017-05-14T02:07:12.667Z,0
2017-05-14T02:07:53.243Z,0
2017-05-14T02:08:33.823Z,0
2017-05-14T02:09:14.403Z,0
2017-05-14T02:09:54.971Z,0
2017-05-14T02:10:35.537Z,0
2017-05-14T02:11:16.116Z,0
2017-05-14T02:11:56.690Z,0
2017-05-14T02:12:37.257Z,0
2017-05-14T02:13:17.831Z,0
2017-05-14T02:13:58.455Z,0
2017-05-14T02:14:39.019Z,0
2017-05-14T02:15:19.609Z,0
2017-05-14T02:16:00.194Z,0
2017-05-14T02:16:40.774Z,0
2017-05-14T02:17:21.348Z,0
2017-05-14T02:18:01.937Z,0
2017-05-14T02:18:42.505Z,0
2017-05-14T02:19:23.076Z,0
2017-05-14T02:20:03.642Z,0
2017-05-14T02:20:44.220Z,0
2017-05-14T02:21:24.801Z,0
2017-05-14T02:22:05.385Z,0
2017-05-14T02:22:45.949Z,0
2017-05-14T02:23:26.521Z,0
2017-05-14T02:24:07.114Z,0
2017-05-14T02:24:47.683Z,0
2017-05-14T02:25:28.248Z,0
2017-05-14T02:26:08.823Z,0
2017-05-14T02:26:49.412Z,0
2017-05-14T02:27:30.006Z,0
2017-05-14T02:28:10.585Z,0
2017-05-14T02:28:51.159Z,0
2017-05-14T02:29:31.728Z,0
2017-05-14T02:30:12.298Z,0
2017-05-14T02:30:52.866Z,0
2017-05-14T02:31:33.480Z,0
2017-05-14T02:32:14.026Z,0
2017-05-14T02:32:54.607Z,0
2017-05-14T02:33:35.207Z,0
2017-05-14T02:34:15.833Z,0
2017-05-14T02:34:56.405Z,0
2017-05-14T02:35:36.992Z,0
2017-05-14T02:36:17.589Z,0
2017-05-14T02:36:58.179Z,0
2017-05-14T02:37:38.744Z,0
2017-05-14T02:38:19.347Z,0
2017-05-14T02:38:59.915Z,0
2017-05-14T02:39:40.513Z,0
2017-05-14T02:40:21.092Z,0
2017-05-14T02:41:01.660Z,0
2017-05-14T02:41:42.255Z,0
2017-05-14T02:42:22.838Z,0
2017-05-14T02:43:03.422Z,0
2017-05-14T02:43:44.004Z,0
2017-05-14T02:44:24.582Z,0
2017-05-14T02:45:05.146Z,0
2017-05-14T02:45:45.723Z,0
2017-05-14T02:46:26.310Z,0
2017-05-14T02:47:06.894Z,0
2017-05-14T02:47:47.487Z,0
2017-05-14T02:48:28.068Z,0
2017-05-14T02:49:08.648Z,0
2017-05-14T02:49:49.238Z,0
2017-05-14T02:50:29.809Z,0
2017-05-14T02:51:10.377Z,0
2017-05-14T02:51:50.950Z,0
2017-05-14T02:52:31.517Z,0
2017-05-14T02:53:12.097Z,0
2017-05-14T02:53:52.680Z,0
2017-05-14T02:54:33.240Z,0
2017-05-14T02:55:13.812Z,0
2017-05-14T02:55:54.405Z,0
2017-05-14T02:56:34.986Z,0
2017-05-14T02:57:15.589Z,0
2017-05-14T02:57:56.192Z,0
2017-05-14T02:58:36.791Z,0
2017-05-14T02:59:17.394Z,0
2017-05-14T02:59:57.991Z,0
2017-05-14T03:00:38.565Z,0
2017-05-14T03:01:19.161Z,0
2017-05-14T03:01:59.751Z,0
2017-05-14T03:02:40.353Z,0
2017-05-14T03:03:20.934Z,0
2017-05-14T03:04:01.512Z,0
2017-05-14T03:04:42.106Z,0
2017-05-14T03:05:22.687Z,0
2017-05-14T03:06:03.255Z,0
2017-05-14T03:06:43.826Z,0
2017-05-14T03:07:24.402Z,0
2017-05-14T03:08:04.976Z,0
2017-05-14T03:08:45.558Z,0
2017-05-14T03:09:26.131Z,0
2017-05-14T03:10:06.716Z,0
2017-05-14T03:10:47.310Z,0
2017-05-14T03:11:27.883Z,0
2017-05-14T03:12:08.458Z,0
2017-05-14T03:12:49.072Z,0
2017-05-14T03:13:29.644Z,0
2017-05-14T03:14:10.230Z,4
2017-05-14T03:14:50.804Z,4
2017-05-14T03:15:31.379Z,4
2017-05-14T03:16:11.948Z,0
2017-05-14T03:16:52.535Z,0
2017-05-14T03:17:33.091Z,4
2017-05-14T03:18:13.676Z,4
2017-05-14T03:18:54.254Z,4
2017-05-14T03:19:34.845Z,4
2017-05-14T03:20:15.436Z,4
2017-05-14T03:20:56.005Z,4
2017-05-14T03:21:36.584Z,8
2017-05-14T03:22:17.189Z,4
2017-05-14T03:22:57.727Z,8
2017-05-14T03:23:38.293Z,8
2017-05-14T03:24:18.873Z,8
2017-05-14T03:24:59.444Z,8
2017-05-14T03:25:40.009Z,12
2017-05-14T03:26:20.594Z,12
2017-05-14T03:27:01.190Z,12
2017-05-14T03:27:41.783Z,12
2017-05-14T03:28:22.356Z,16
2017-05-14T03:29:02.932Z,16
2017-05-14T03:29:43.506Z,16
2017-05-14T03:30:24.068Z,20
2017-05-14T03:31:04.642Z,20
2017-05-14T03:31:45.215Z,24
2017-05-14T03:32:25.792Z,24
2017-05-14T03:33:06.363Z,24
2017-05-14T03:33:46.957Z,32
2017-05-14T03:34:27.562Z,32
2017-05-14T03:35:08.115Z,32
2017-05-14T03:35:48.680Z,36
2017-05-14T03:36:29.256Z,40
2017-05-14T03:37:09.822Z,44
2017-05-14T03:37:50.406Z,44
2017-05-14T03:38:30.982Z,48
2017-05-14T03:39:11.576Z,52
2017-05-14T03:39:52.163Z,56
2017-05-14T03:40:32.737Z,64
2017-05-14T03:41:13.333Z,64
2017-05-14T03:41:53.928Z,68
2017-05-14T03:42:34.498Z,72
2017-05-14T03:43:15.073Z,80
2017-05-14T03:43:55.640Z,80
2017-05-14T03:44:36.218Z,88
2017-05-14T03:45:16.805Z,92
2017-05-14T03:45:57.381Z,96
2017-05-14T03:46:37.946Z,104
2017-05-14T03:47:18.540Z,108
2017-05-14T03:47:59.104Z,112
2017-05-14T03:48:39.688Z,116
2017-05-14T03:49:20.272Z,124
2017-05-14T03:50:00.849Z,132
2017-05-14T03:50:41.417Z,136
2017-05-14T03:51:21.989Z,144
2017-05-14T03:52:02.579Z,148
2017-05-14T03:52:43.195Z,160
2017-05-14T03:53:23.816Z,168
2017-05-14T03:54:04.394Z,176
2017-05-14T03:54:44.965Z,180
2017-05-14T03:55:25.544Z,184
2017-05-14T03:56:06.115Z,188
2017-05-14T03:56:46.682Z,192
2017-05-14T03:57:27.258Z,196
2017-05-14T03:58:07.825Z,204
2017-05-14T03:58:48.396Z,208
2017-05-14T03:59:28.991Z,216
2017-05-14T04:00:09.570Z,224
2017-05-14T04:00:50.161Z,228
2017-05-14T04:01:30.729Z,240
2017-05-14T04:02:11.293Z,244
2017-05-14T04:02:51.869Z,248
2017-05-14T04:03:32.436Z,252
2017-05-14T04:04:13.001Z,260
2017-05-14T04:04:53.576Z,264
2017-05-14T04:05:34.145Z,276
2017-05-14T04:06:14.733Z,284
2017-05-14T04:06:55.300Z,296
2017-05-14T04:07:35.869Z,304
2017-05-14T04:08:16.440Z,316
2017-05-14T04:08:57.007Z,328
2017-05-14T04:09:37.579Z,340
2017-05-14T04:10:18.156Z,352
2017-05-14T04:10:58.726Z,360
2017-05-14T04:11:39.298Z,372
2017-05-14T04:12:19.864Z,384
2017-05-14T04:13:00.449Z,396
2017-05-14T04:13:41.032Z,404
2017-05-14T04:14:21.598Z,416
2017-05-14T04:15:02.175Z,428
2017-05-14T04:15:42.747Z,440
2017-05-14T04:16:23.332Z,448
2017-05-14T04:17:03.905Z,456
2017-05-14T04:17:44.482Z,468
2017-05-14T04:18:25.051Z,476
2017-05-14T04:19:05.621Z,488
2017-05-14T04:19:46.271Z,496
2017-05-14T04:20:26.864Z,504
2017-05-14T04:21:07.420Z,516
2017-05-14T04:21:47.990Z,524
2017-05-14T04:22:28.562Z,532
2017-05-14T04:23:09.137Z,540
2017-05-14T04:23:49.703Z,552
2017-05-14T04:24:30.291Z,556
2017-05-14T04:25:10.865Z,564
2017-05-14T04:25:51.440Z,572
2017-05-14T04:26:32.022Z,580
2017-05-14T04:27:12.598Z,588
2017-05-14T04:27:53.188Z,600
2017-05-14T04:28:33.765Z,608
2017-05-14T04:29:14.379Z,616
2017-05-14T04:29:54.967Z,624
2017-05-14T04:30:35.543Z,636
2017-05-14T04:31:16.113Z,644
2017-05-14T04:31:56.679Z,656
2017-05-14T04:32:37.251Z,672
2017-05-14T04:33:17.827Z,680
2017-05-14T04:33:58.395Z,692
2017-05-14T04:34:38.967Z,708
2017-05-14T04:35:19.547Z,716
2017-05-14T04:36:00.115Z,732
2017-05-14T04:36:40.686Z,748
2017-05-14T04:37:21.262Z,760
2017-05-14T04:38:01.839Z,776
2017-05-14T04:38:42.413Z,788
2017-05-14T04:39:22.984Z,796
2017-05-14T04:40:03.563Z,812
2017-05-14T04:40:44.149Z,824
2017-05-14T04:41:24.718Z,840
2017-05-14T04:42:05.285Z,852
2017-05-14T04:42:45.877Z,864
2017-05-14T04:43:26.460Z,872
2017-05-14T04:44:07.038Z,884
2017-05-14T04:44:47.625Z,892
2017-05-14T04:45:28.186Z,900
2017-05-14T04:46:08.773Z,908
2017-05-14T04:46:49.340Z,916
2017-05-14T04:47:29.924Z,924
2017-05-14T04:48:10.498Z,932
2017-05-14T04:48:51.063Z,944
2017-05-14T04:49:31.639Z,952
2017-05-14T04:50:12.213Z,964
2017-05-14T04:50:52.784Z,976
2017-05-14T04:51:33.372Z,984
2017-05-14T04:52:13.941Z,996
2017-05-14T04:52:54.520Z,1004
2017-05-14T04:53:35.102Z,1016
2017-05-14T04:54:15.699Z,1024
2017-05-14T04:54:56.272Z,1036
2017-05-14T04:55:36.853Z,1040
2017-05-14T04:56:17.421Z,1052
2017-05-14T04:56:58.001Z,1056
2017-05-14T04:57:38.596Z,1064
2017-05-14T04:58:19.167Z,1068
2017-05-14T04:58:59.762Z,1076
2017-05-14T04:59:40.337Z,1080
2017-05-14T05:00:20.914Z,1084
2017-05-14T05:01:01.543Z,1092
2017-05-14T05:01:42.127Z,1100
2017-05-14T05:02:22.712Z,1104
2017-05-14T05:03:03.317Z,1112
2017-05-14T05:03:43.920Z,1120
2017-05-14T05:04:24.533Z,1124
2017-05-14T05:05:05.129Z,1132
2017-05-14T05:05:45.724Z,1132
2017-05-14T05:06:26.293Z,1140
2017-05-14T05:07:06.873Z,1144
2017-05-14T05:07:47.480Z,1152
2017-05-14T05:08:28.009Z,1160
2017-05-14T05:09:08.582Z,1168
2017-05-14T05:09:49.151Z,1172
2017-05-14T05:10:29.741Z,1176
2017-05-14T05:11:10.361Z,1180
2017-05-14T05:11:50.941Z,1192
2017-05-14T05:12:31.517Z,1200
2017-05-14T05:13:12.103Z,1212
2017-05-14T05:13:52.685Z,1244
2017-05-14T05:14:33.271Z,1280
2017-05-14T05:15:13.862Z,1332
2017-05-14T05:15:54.431Z,1380
2017-05-14T05:16:35.000Z,1432
2017-05-14T05:17:15.572Z,1448
2017-05-14T05:17:56.303Z,1440
2017-05-14T05:18:36.869Z,1456
2017-05-14T05:19:17.466Z,1472
2017-05-14T05:19:58.035Z,1480
2017-05-14T05:20:38.615Z,1456
2017-05-14T05:21:19.238Z,1416
2017-05-14T05:21:59.813Z,1380
2017-05-14T05:22:40.381Z,1380
2017-05-14T05:23:20.974Z,1372
2017-05-14T05:24:01.535Z,1356
2017-05-14T05:24:42.148Z,1352
2017-05-14T05:25:22.683Z,1360
2017-05-14T05:26:03.254Z,1348
2017-05-14T05:26:43.869Z,1340
2017-05-14T05:27:24.430Z,1332
2017-05-14T05:28:05.006Z,1332
2017-05-14T05:28:45.590Z,1332
2017-05-14T05:29:26.237Z,1340
2017-05-14T05:30:06.764Z,1340
2017-05-14T05:30:47.337Z,1340
2017-05-14T05:31:27.903Z,1336
2017-05-14T05:32:08.479Z,1340
2017-05-14T05:32:49.068Z,1344
2017-05-14T05:33:29.641Z,1352
2017-05-14T05:34:10.233Z,1360
2017-05-14T05:34:50.845Z,1368
2017-05-14T05:35:31.446Z,1376
2017-05-14T05:36:12.018Z,1384
2017-05-14T05:36:52.609Z,1388
2017-05-14T05:37:33.191Z,1392
2017-05-14T05:38:13.757Z,1396
2017-05-14T05:38:54.343Z,1404
2017-05-14T05:39:34.953Z,1408
2017-05-14T05:40:15.549Z,1416
2017-05-14T05:40:56.190Z,1428
2017-05-14T05:41:36.833Z,1440
2017-05-14T05:42:17.436Z,1452
2017-05-14T05:42:58.008Z,1464
2017-05-14T05:43:38.572Z,1468
2017-05-14T05:44:19.151Z,1480
2017-05-14T05:44:59.725Z,1488
2017-05-14T05:45:40.761Z,1496
2017-05-14T05:46:22.470Z,1496
2017-05-14T05:47:03.957Z,1504
2017-05-14T05:47:44.537Z,1508
2017-05-14T05:48:25.109Z,1516
2017-05-14T05:49:05.687Z,1516
2017-05-14T05:49:46.259Z,1524
2017-05-14T05:50:26.835Z,1536
2017-05-14T05:51:07.420Z,1552
2017-05-14T05:51:47.992Z,1568
2017-05-14T05:52:28.565Z,1584
2017-05-14T05:53:09.157Z,1600
2017-05-14T05:53:49.767Z,1616
2017-05-14T05:54:30.358Z,1632
2017-05-14T05:55:10.922Z,1648
2017-05-14T05:55:51.502Z,1656
2017-05-14T05:56:32.083Z,1664
2017-05-14T05:57:12.649Z,1688
2017-05-14T05:57:53.222Z,1704
2017-05-14T05:58:33.809Z,1724
2017-05-14T05:59:14.377Z,1736
2017-05-14T05:59:54.951Z,1736
2017-05-14T06:00:35.599Z,1752
2017-05-14T06:01:16.175Z,1772
2017-05-14T06:01:56.752Z,1796
2017-05-14T06:02:37.334Z,1816
2017-05-14T06:03:17.905Z,1832
2017-05-14T06:03:58.476Z,1848
2017-05-14T06:04:39.050Z,1856
2017-05-14T06:05:19.632Z,1868
2017-05-14T06:06:00.199Z,1880
2017-05-14T06:06:40.779Z,1892
2017-05-14T06:07:21.354Z,1912
2017-05-14T06:08:01.933Z,1928
2017-05-14T06:08:42.502Z,1940
2017-05-14T06:09:23.077Z,1948
2017-05-14T06:10:03.641Z,1960
2017-05-14T06:10:44.213Z,1976
2017-05-14T06:11:24.847Z,2004
2017-05-14T06:12:05.413Z,2032
2017-05-14T06:12:45.986Z,2048
2017-05-14T06:13:26.558Z,2056
2017-05-14T06:14:07.136Z,2072
2017-05-14T06:14:47.707Z,2100
2017-05-14T06:15:28.280Z,2148
2017-05-14T06:16:08.868Z,2176
2017-05-14T06:16:49.441Z,2204
2017-05-14T06:17:30.010Z,2232
2017-05-14T06:18:10.623Z,2260
2017-05-14T06:18:51.197Z,2296
2017-05-14T06:19:31.773Z,2324
2017-05-14T06:20:12.359Z,2360
2017-05-14T06:20:52.932Z,2388
2017-05-14T06:21:33.499Z,2424
2017-05-14T06:22:14.069Z,2456
2017-05-14T06:22:54.639Z,2472
2017-05-14T06:23:35.215Z,2500
2017-05-14T06:24:15.781Z,2524
2017-05-14T06:24:56.365Z,2548
2017-05-14T06:25:36.936Z,2576
2017-05-14T06:26:17.606Z,2596
2017-05-14T06:26:58.179Z,2628
2017-05-14T06:27:38.897Z,2656
2017-05-14T06:28:19.504Z,2688
2017-05-14T06:29:00.077Z,2736
2017-05-14T06:29:40.650Z,2684
2017-05-14T06:30:21.251Z,2752
2017-05-14T06:31:01.890Z,2512
2017-05-14T06:31:42.726Z,2596
2017-05-14T06:32:23.318Z,2420
2017-05-14T06:33:03.902Z,2912
2017-05-14T06:33:44.478Z,2920
2017-05-14T06:34:25.070Z,2936
2017-05-14T06:35:05.665Z,2944
2017-05-14T06:35:46.423Z,2964
2017-05-14T06:36:26.998Z,2984
2017-05-14T06:37:07.582Z,3000
2017-05-14T06:37:48.167Z,3036
2017-05-14T06:38:28.739Z,3108
2017-05-14T06:39:09.317Z,3192
2017-05-14T06:39:49.907Z,3260
2017-05-14T06:40:30.484Z,3276
2017-05-14T06:41:11.059Z,3308
2017-05-14T06:41:51.950Z,3312
2017-05-14T06:42:32.595Z,3320
2017-05-14T06:43:13.180Z,3376
2017-05-14T06:43:53.747Z,3360
2017-05-14T06:44:34.326Z,3328
2017-05-14T06:45:14.943Z,3256
2017-05-14T06:45:55.597Z,3256
2017-05-14T06:46:36.197Z,3284
2017-05-14T06:47:16.820Z,3296
2017-05-14T06:47:57.406Z,3372
2017-05-14T06:48:37.984Z,3448
2017-05-14T06:49:18.626Z,3548
2017-05-14T06:49:59.205Z,3656
2017-05-14T06:50:39.774Z,3836
2017-05-14T06:51:20.363Z,4004
2017-05-14T06:52:00.938Z,4028
2017-05-14T06:52:41.526Z,4084
2017-05-14T06:53:22.121Z,4224
2017-05-14T06:54:02.710Z,4492
2017-05-14T06:54:43.280Z,4668
2017-05-14T06:55:23.851Z,4912
2017-05-14T06:56:04.438Z,5048
2017-05-14T06:56:45.036Z,5444
2017-05-14T06:57:25.612Z,5564
2017-05-14T06:58:06.182Z,5284
2017-05-14T06:58:46.773Z,5768
2017-05-14T06:59:27.378Z,6056
2017-05-14T07:00:07.955Z,6556
2017-05-14T07:00:48.529Z,6800
2017-05-14T07:01:29.106Z,7040
2017-05-14T07:02:09.706Z,7600
2017-05-14T07:02:50.292Z,7684
2017-05-14T07:03:30.998Z,7708
2017-05-14T07:04:11.567Z,7304
2017-05-14T07:04:52.141Z,7220
2017-05-14T07:05:32.731Z,7048
2017-05-14T07:06:13.312Z,7180
2017-05-14T07:06:53.895Z,6520
2017-05-14T07:07:34.462Z,6100
2017-05-14T07:08:15.042Z,6920
2017-05-14T07:08:55.613Z,7048
2017-05-14T07:09:36.202Z,6976
2017-05-14T07:10:16.837Z,7028
2017-05-14T07:10:57.385Z,6796
2017-05-14T07:11:37.971Z,6616
2017-05-14T07:12:18.554Z,6312
2017-05-14T07:12:59.137Z,6464
2017-05-14T07:13:39.721Z,7360
2017-05-14T07:14:20.292Z,7772
2017-05-14T07:15:00.886Z,8116
2017-05-14T07:15:41.486Z,8660
2017-05-14T07:16:22.088Z,9296
2017-05-14T07:17:02.657Z,9684
2017-05-14T07:17:43.236Z,10160
2017-05-14T07:18:23.815Z,10548
2017-05-14T07:19:04.400Z,10672
2017-05-14T07:19:45.007Z,10448
2017-05-14T07:20:25.624Z,9612
2017-05-14T07:21:06.201Z,10048
2017-05-14T07:21:46.806Z,10704
2017-05-14T07:22:27.387Z,11048
2017-05-14T07:23:07.968Z,11588
2017-05-14T07:23:48.552Z,10792
2017-05-14T07:24:29.158Z,10368
2017-05-14T07:25:09.764Z,10628
2017-05-14T07:25:50.360Z,10540
2017-05-14T07:26:30.970Z,11048
2017-05-14T07:27:11.557Z,11256
2017-05-14T07:27:52.173Z,10656
2017-05-14T07:28:32.760Z,12160
2017-05-14T07:29:13.348Z,11708
2017-05-14T07:29:53.924Z,11612
2017-05-14T07:30:34.519Z,10184
2017-05-14T07:31:15.091Z,12068
2017-05-14T07:31:55.673Z,12224
2017-05-14T07:32:36.247Z,17120
2017-05-14T07:33:16.824Z,14440
2017-05-14T07:33:57.401Z,12440
2017-05-14T07:34:37.972Z,10144
2017-05-14T07:35:18.550Z,7936
2017-05-14T07:35:59.140Z,7836
2017-05-14T07:36:39.732Z,7516
2017-05-14T07:37:20.302Z,6676
2017-05-14T07:38:00.881Z,6296
2017-05-14T07:38:41.448Z,6304
2017-05-14T07:39:22.037Z,6172
2017-05-14T07:40:02.607Z,5884
2017-05-14T07:40:43.188Z,5660
2017-05-14T07:41:23.765Z,5624
2017-05-14T07:42:04.361Z,5672
2017-05-14T07:42:44.941Z,5588
2017-05-14T07:43:25.527Z,5312
2017-05-14T07:44:06.110Z,5132
2017-05-14T07:44:46.690Z,5208
2017-05-14T07:45:27.267Z,5188
2017-05-14T07:46:07.862Z,4876
2017-05-14T07:46:48.439Z,4516
2017-05-14T07:47:29.020Z,4364
2017-05-14T07:48:09.611Z,4268
2017-05-14T07:48:50.210Z,4312
2017-05-14T07:49:30.792Z,4260
2017-05-14T07:50:11.379Z,4148
2017-05-14T07:50:51.965Z,4136
2017-05-14T07:51:32.545Z,4268
2017-05-14T07:52:13.130Z,4364
2017-05-14T07:52:53.711Z,4368
2017-05-14T07:53:34.291Z,4360
2017-05-14T07:54:14.875Z,4368
2017-05-14T07:54:55.462Z,4452
2017-05-14T07:55:36.037Z,4764
2017-05-14T07:56:16.615Z,5108
2017-05-14T07:56:57.198Z,5196
2017-05-14T07:57:37.771Z,5004
2017-05-14T07:58:18.350Z,4760
2017-05-14T07:58:58.953Z,4688
2017-05-14T07:59:39.541Z,4800
2017-05-14T08:00:20.112Z,5000
2017-05-14T08:01:00.690Z,5224
2017-05-14T08:01:41.275Z,5428
2017-05-14T08:02:21.851Z,5516
2017-05-14T08:03:02.456Z,5576
2017-05-14T08:03:43.046Z,5724
2017-05-14T08:04:23.628Z,5884
2017-05-14T08:05:04.203Z,6060
2017-05-14T08:05:44.776Z,6212
2017-05-14T08:06:25.354Z,6384
2017-05-14T08:07:05.936Z,6288
2017-05-14T08:07:46.517Z,6168
2017-05-14T08:08:27.094Z,6164
2017-05-14T08:09:07.671Z,6308
2017-05-14T08:09:48.255Z,6576
2017-05-14T08:10:28.826Z,6368
2017-05-14T08:11:09.405Z,6348
2017-05-14T08:11:50.000Z,6384
2017-05-14T08:12:30.570Z,6392
2017-05-14T08:13:11.143Z,6400
2017-05-14T08:13:51.727Z,6380
2017-05-14T08:14:32.333Z,6396
2017-05-14T08:15:12.902Z,6212
2017-05-14T08:15:53.479Z,5996
2017-05-14T08:16:34.051Z,5772
2017-05-14T08:17:14.631Z,5588
2017-05-14T08:17:55.201Z,5444
2017-05-14T08:18:35.782Z,5348
2017-05-14T08:19:16.364Z,5292
2017-05-14T08:19:56.950Z,5216
2017-05-14T08:20:37.526Z,5252
2017-05-14T08:21:18.097Z,5412
2017-05-14T08:21:58.680Z,5492
2017-05-14T08:22:39.256Z,5380
2017-05-14T08:23:19.862Z,5244
2017-05-14T08:24:00.443Z,5296
2017-05-14T08:24:41.027Z,5528
2017-05-14T08:25:21.604Z,5724
2017-05-14T08:26:02.203Z,5836
2017-05-14T08:26:42.769Z,6064
2017-05-14T08:27:23.352Z,6260
2017-05-14T08:28:03.947Z,6428
2017-05-14T08:28:44.523Z,6260
2017-05-14T08:29:25.099Z,5928
2017-05-14T08:30:05.666Z,5544
2017-05-14T08:30:46.280Z,5244
2017-05-14T08:31:26.861Z,5076
2017-05-14T08:32:07.439Z,4968
2017-05-14T08:32:48.026Z,4840
2017-05-14T08:33:28.619Z,4644
2017-05-14T08:34:09.232Z,4468
2017-05-14T08:34:49.813Z,4408
2017-05-14T08:35:30.405Z,4484
2017-05-14T08:36:10.988Z,4652
2017-05-14T08:36:51.584Z,4980
2017-05-14T08:37:32.163Z,5568
2017-05-14T08:38:12.751Z,6312
2017-05-14T08:38:53.338Z,6808
2017-05-14T08:39:33.916Z,6772
2017-05-14T08:40:14.496Z,6380
2017-05-14T08:40:55.076Z,6100
2017-05-14T08:41:35.651Z,5920
2017-05-14T08:42:16.254Z,5820
2017-05-14T08:42:56.846Z,5656
2017-05-14T08:43:37.426Z,5440
2017-05-14T08:44:18.005Z,5172
2017-05-14T08:44:58.591Z,4996
2017-05-14T08:45:39.171Z,4896
2017-05-14T08:46:19.761Z,4936
2017-05-14T08:47:00.333Z,5072
2017-05-14T08:47:40.930Z,5272
2017-05-14T08:48:21.501Z,5512
2017-05-14T08:49:02.070Z,5728
2017-05-14T08:49:42.649Z,5892
2017-05-14T08:50:23.226Z,5876
2017-05-14T08:51:03.808Z,5856
2017-05-14T08:51:44.377Z,5784
2017-05-14T08:52:24.963Z,5732
2017-05-14T08:53:05.537Z,5784
2017-05-14T08:53:46.122Z,5812
2017-05-14T08:54:26.688Z,5804
2017-05-14T08:55:07.314Z,5660
2017-05-14T08:55:47.888Z,5516
2017-05-14T08:56:28.471Z,5324
2017-05-14T08:57:09.059Z,5108
2017-05-14T08:57:49.664Z,5068
2017-05-14T08:58:30.236Z,5132
2017-05-14T08:59:10.826Z,5272
2017-05-14T08:59:51.400Z,5468
2017-05-14T09:00:31.983Z,5568
2017-05-14T09:01:12.561Z,5580
2017-05-14T09:01:53.221Z,5400
2017-05-14T09:02:33.799Z,5176
2017-05-14T09:03:14.382Z,5112
2017-05-14T09:03:54.966Z,5136
2017-05-14T09:04:35.546Z,5276
2017-05-14T09:05:16.134Z,5332
2017-05-14T09:05:56.712Z,5092
2017-05-14T09:06:37.294Z,4640
2017-05-14T09:07:17.868Z,4168
2017-05-14T09:07:58.444Z,3824
2017-05-14T09:08:39.019Z,3704
2017-05-14T09:09:19.609Z,3724
2017-05-14T09:10:00.176Z,3852
2017-05-14T09:10:40.749Z,3972
2017-05-14T09:11:21.340Z,4024
2017-05-14T09:12:01.914Z,4192
2017-05-14T09:12:42.495Z,4736
2017-05-14T09:13:23.083Z,5388
2017-05-14T09:14:03.678Z,5968
2017-05-14T09:14:44.259Z,6380
2017-05-14T09:15:24.860Z,6584
2017-05-14T09:16:05.438Z,6612
2017-05-14T09:16:46.018Z,6580
2017-05-14T09:17:26.599Z,6560
2017-05-14T09:18:07.171Z,6476
2017-05-14T09:18:47.797Z,6364
2017-05-14T09:19:28.337Z,6184
2017-05-14T09:20:08.904Z,5836
2017-05-14T09:20:49.482Z,5256
2017-05-14T09:21:30.053Z,4876
2017-05-14T09:22:10.627Z,4932
2017-05-14T09:22:51.197Z,5684
2017-05-14T09:23:31.786Z,6232